Time;durP1;ratioP1;P1;durP2;ratioP2;P2;SDS_P1;SDS_P2;PMS_P1;PMS_P2;Temp;Humidity;BMP_temperature;BMP_pressure;BME280_temperature;BME280_humidity;BME280_pressure;Samples;Min_cycle;Max_cycle;Signal;HPM_P1;HPM_P2
2022/04/16 00:02:08;;;;;;;3.45;1.92;;;;;;;5.71;78.24;98343.13;5048130;28;20049;-61
2022/04/16 00:04:35;;;;;;;3.38;1.60;;;;;;;5.56;77.60;98348.59;5047936;28;20056;-61
2022/04/16 00:07:03;;;;;;;3.30;1.63;;;;;;;5.44;78.16;98341.09;5060226;28;20045;-61
2022/04/16 00:09:29;;;;;;;3.20;1.77;;;;;;;5.40;78.58;98345.19;5046584;28;20492;-62
2022/04/16 00:11:56;;;;;;;4.00;1.80;;;;;;;5.34;79.00;98344.09;5059483;28;20052;-61
2022/04/16 00:14:23;;;;;;;2.72;1.45;;;;;;;5.27;79.05;98340.53;5061325;28;20510;-61
2022/04/16 00:16:50;;;;;;;4.50;2.08;;;;;;;5.21;79.30;98342.13;5053958;28;20054;-61
2022/04/16 00:19:16;;;;;;;5.57;2.17;;;;;;;5.18;80.19;98339.84;5046927;28;20044;-61
2022/04/16 00:21:43;;;;;;;4.43;2.35;;;;;;;5.20;80.06;98334.28;5049877;28;20044;-61
2022/04/16 00:24:10;;;;;;;3.22;1.67;;;;;;;5.13;79.61;98339.59;5047971;28;20037;-62
2022/04/16 00:26:40;;;;;;;3.35;1.73;;;;;;;4.95;80.70;98335.47;5055711;28;20045;-63
2022/04/16 00:29:08;;;;;;;3.67;1.90;;;;;;;4.86;80.93;98333.94;5046087;28;20045;-62
2022/04/16 00:31:36;;;;;;;6.35;2.55;;;;;;;4.81;80.73;98336.38;5045155;28;20671;-62
2022/04/16 00:34:03;;;;;;;4.07;2.10;;;;;;;4.76;80.59;98336.94;5047908;28;20500;-62
2022/04/16 00:36:29;;;;;;;4.18;2.33;;;;;;;4.79;80.98;98338.44;5063057;28;20037;-62
2022/04/16 00:38:56;;;;;;;3.50;2.10;;;;;;;4.69;81.11;98331.50;5057020;28;20068;-63
2022/04/16 00:41:23;;;;;;;3.97;1.90;;;;;;;4.48;82.15;98332.31;5047196;28;20044;-61
2022/04/16 00:43:52;;;;;;;5.85;2.55;;;;;;;4.43;82.17;98334.75;5057939;28;20102;-62
2022/04/16 00:46:19;;;;;;;4.88;2.50;;;;;;;4.45;82.26;98334.56;5046352;28;20051;-62
2022/04/16 00:48:46;;;;;;;3.80;2.10;;;;;;;4.35;82.36;98335.66;5047764;28;20045;-62
2022/04/16 00:51:14;;;;;;;8.73;2.33;;;;;;;4.53;81.71;98332.59;5046622;28;20413;-62
2022/04/16 00:53:43;;;;;;;3.33;1.80;;;;;;;4.52;81.60;98333.59;5058520;28;20060;-61
2022/04/16 00:56:11;;;;;;;3.70;2.13;;;;;;;4.43;82.00;98330.19;5053481;28;20041;-61
2022/04/16 00:58:41;;;;;;;4.25;2.45;;;;;;;4.43;82.82;98334.75;5046522;28;20049;-61
2022/04/16 01:01:08;;;;;;;3.22;2.00;;;;;;;4.56;82.52;98331.38;5045855;28;20397;-61
2022/04/16 01:03:35;;;;;;;4.88;2.03;;;;;;;4.52;81.62;98332.75;5045981;28;20437;-62
2022/04/16 01:06:02;;;;;;;4.15;1.90;;;;;;;4.31;82.07;98330.88;5062707;28;20215;-61
2022/04/16 01:08:30;;;;;;;4.30;2.33;;;;;;;4.14;82.63;98334.59;5046138;28;20107;-62
2022/04/16 01:10:57;;;;;;;4.03;2.10;;;;;;;4.29;82.79;98326.53;5049827;28;20025;-62
2022/04/16 01:13:24;;;;;;;3.53;1.95;;;;;;;4.18;83.21;98336.91;5052547;28;20040;-61
2022/04/16 01:15:50;;;;;;;3.92;2.22;;;;;;;4.02;83.25;98334.22;5057439;28;20177;-61
2022/04/16 01:18:17;;;;;;;6.07;2.08;;;;;;;3.91;83.40;98332.03;5064885;28;20036;-61
2022/04/16 01:20:44;;;;;;;4.65;2.47;;;;;;;3.77;84.25;98337.19;5060823;28;20041;-61
2022/04/16 01:23:11;;;;;;;4.00;2.17;;;;;;;3.75;84.64;98338.38;5058175;28;20544;-60
2022/04/16 01:25:38;;;;;;;4.13;1.73;;;;;;;3.81;84.80;98342.19;5058399;28;20508;-61
2022/04/16 01:28:05;;;;;;;4.32;2.17;;;;;;;3.79;84.27;98334.31;5055941;28;20063;-62
2022/04/16 01:30:32;;;;;;;4.28;2.15;;;;;;;3.69;83.81;98326.53;5043370;28;20071;-61
2022/04/16 01:32:59;;;;;;;4.32;1.98;;;;;;;3.53;85.37;98327.56;5051307;28;20041;-61
2022/04/16 01:35:26;;;;;;;4.47;1.75;;;;;;;3.61;85.53;98329.34;5055808;28;20037;-62
2022/04/16 01:37:53;;;;;;;5.00;1.92;;;;;;;3.72;84.51;98338.78;5057737;28;20043;-61
2022/04/16 01:40:25;;;;;;;5.95;2.10;;;;;;;3.48;84.92;98336.16;5065531;28;20492;-60
2022/04/16 01:42:56;;;;;;;4.35;2.30;;;;;;;3.36;85.19;98340.28;5056568;28;20568;-61
2022/04/16 01:45:23;;;;;;;4.78;2.35;;;;;;;3.34;84.95;98336.94;5045415;28;20127;-61
2022/04/16 01:47:50;;;;;;;4.70;2.63;;;;;;;3.28;85.82;98343.84;5046144;28;20087;-61
2022/04/16 01:50:18;;;;;;;5.63;2.45;;;;;;;3.16;85.59;98339.97;5045944;28;20037;-60
2022/04/16 01:52:46;;;;;;;4.03;2.38;;;;;;;3.11;85.96;98343.16;5044483;28;20420;-61
2022/04/16 01:55:13;;;;;;;4.43;2.40;;;;;;;3.19;85.80;98344.94;5052515;28;20452;-62
2022/04/16 01:57:40;;;;;;;4.88;2.63;;;;;;;3.18;86.22;98353.97;5045761;28;20045;-62
2022/04/16 02:00:09;;;;;;;4.28;2.30;;;;;;;3.51;84.46;98354.50;5045092;28;20091;-62
2022/04/16 02:02:36;;;;;;;4.97;2.45;;;;;;;3.29;84.93;98356.25;5057992;28;20446;-61
2022/04/16 02:05:05;;;;;;;6.20;2.42;;;;;;;3.40;84.48;98364.84;5052290;28;20079;-62
2022/04/16 02:07:32;;;;;;;4.78;2.50;;;;;;;3.36;83.67;98367.88;5045041;28;20037;-62
2022/04/16 02:09:58;;;;;;;5.88;2.15;;;;;;;3.10;84.26;98362.91;5045654;28;20094;-61
2022/04/16 02:12:25;;;;;;;3.65;2.10;;;;;;;2.94;85.54;98363.84;5044628;28;20045;-62
2022/04/16 02:14:51;;;;;;;3.80;2.00;;;;;;;2.80;86.60;98357.44;5044839;28;20098;-62
2022/04/16 02:17:18;;;;;;;4.80;2.53;;;;;;;2.73;86.77;98363.47;5044697;28;20272;-62
2022/04/16 02:19:48;;;;;;;4.05;2.17;;;;;;;2.57;86.46;98358.22;5045007;28;20041;-60
2022/04/16 02:22:16;;;;;;;5.13;2.53;;;;;;;2.61;87.25;98351.53;5044495;28;20037;-61
2022/04/16 02:24:44;;;;;;;4.22;2.20;;;;;;;2.66;87.02;98345.66;5053744;28;20370;-61
2022/04/16 02:27:10;;;;;;;4.80;2.28;;;;;;;2.62;86.88;98347.00;5060507;28;20064;-62
2022/04/16 02:29:37;;;;;;;5.03;2.25;;;;;;;2.72;87.30;98351.13;5044699;28;20057;-61
2022/04/16 02:32:06;;;;;;;5.32;2.63;;;;;;;2.68;86.52;98349.81;5048305;28;20119;-61
2022/04/16 02:34:32;;;;;;;4.90;2.35;;;;;;;2.69;87.45;98350.66;5058469;28;20044;-61
2022/04/16 02:36:59;;;;;;;4.43;2.65;;;;;;;2.68;86.77;98346.28;5064578;28;20127;-60
2022/04/16 02:39:25;;;;;;;5.45;2.30;;;;;;;2.67;86.25;98348.16;5047786;28;20044;-61
2022/04/16 02:41:52;;;;;;;4.60;2.53;;;;;;;2.46;87.27;98348.75;5057660;28;20130;-60
2022/04/16 02:47:08;;;;;;;4.43;2.53;;;;;;;2.50;87.33;98351.94;5055931;28;20499;-61
2022/04/16 02:49:39;;;;;;;4.75;2.28;;;;;;;2.45;87.06;98355.97;5052712;28;20045;-61
2022/04/16 02:52:07;;;;;;;4.75;2.65;;;;;;;2.34;86.29;98357.19;5048905;28;20036;-61
2022/04/16 02:54:34;;;;;;;3.88;2.25;;;;;;;2.30;87.86;98360.38;5053550;28;20051;-61
2022/04/16 02:57:01;;;;;;;6.93;2.72;;;;;;;2.40;87.94;98355.63;5060239;28;20153;-61
2022/04/16 02:59:27;;;;;;;4.07;2.30;;;;;;;2.27;86.86;98353.53;5059512;28;20049;-61
2022/04/16 03:01:54;;;;;;;5.50;2.70;;;;;;;2.21;88.14;98357.72;5054965;28;20488;-62
2022/04/16 03:04:21;;;;;;;4.03;2.20;;;;;;;2.16;87.64;98362.78;5059300;28;20049;-61
2022/04/16 03:06:48;;;;;;;4.60;2.55;;;;;;;2.16;87.31;98360.09;5044170;28;20415;-60
2022/04/16 03:09:15;;;;;;;5.18;2.80;;;;;;;2.19;87.64;98361.59;5049641;28;20092;-62
2022/04/16 03:11:41;;;;;;;5.18;3.05;;;;;;;2.31;87.24;98364.72;5047844;28;20175;-61
2022/04/16 03:19:37;;;;;;;6.85;2.20;;;;;;;2.11;86.53;98369.63;5051980;28;20044;-61
2022/04/16 03:22:04;;;;;;;4.72;2.63;;;;;;;2.11;87.39;98365.13;5059098;28;20043;-60
2022/04/16 03:24:31;;;;;;;3.78;2.45;;;;;;;1.98;87.67;98368.34;5045667;28;20045;-62
2022/04/16 03:26:57;;;;;;;4.80;2.60;;;;;;;1.79;88.37;98361.53;5069050;28;20040;-61
2022/04/16 03:29:24;;;;;;;4.68;2.40;;;;;;;1.81;88.64;98364.91;5053544;28;20047;-60
2022/04/16 03:31:50;;;;;;;4.53;2.50;;;;;;;1.88;88.15;98357.84;5058042;28;20082;-61
2022/04/16 03:34:17;;;;;;;4.65;2.63;;;;;;;1.76;88.77;98359.22;5052076;28;20325;-60
2022/04/16 03:36:43;;;;;;;4.35;2.15;;;;;;;1.92;88.49;98361.03;5046763;28;20504;-61
2022/04/16 03:39:10;;;;;;;4.00;2.50;;;;;;;1.91;88.08;98365.53;5051664;28;20059;-62
2022/04/16 03:41:38;;;;;;;5.13;2.60;;;;;;;1.72;87.38;98355.22;5064738;28;20078;-61
2022/04/16 03:44:06;;;;;;;4.70;2.75;;;;;;;1.81;88.47;98356.88;5047917;28;20037;-61
2022/04/16 03:46:32;;;;;;;6.13;2.53;;;;;;;1.76;87.72;98360.06;5048321;28;20045;-62
2022/04/16 03:49:02;;;;;;;5.20;2.70;;;;;;;1.77;88.03;98361.72;5048424;28;20574;-61
2022/04/16 03:51:28;;;;;;;5.40;2.78;;;;;;;1.63;88.64;98351.75;5046943;28;20041;-62
2022/04/16 03:53:55;;;;;;;6.32;3.38;;;;;;;1.53;89.53;98362.59;5054318;28;20049;-62
2022/04/16 04:01:51;;;;;;;4.95;2.90;;;;;;;1.73;88.68;98355.03;5053745;28;20048;-61
2022/04/16 04:04:18;;;;;;;5.57;2.90;;;;;;;1.74;88.50;98370.09;5047937;28;20120;-61
2022/04/16 04:06:44;;;;;;;5.30;2.65;;;;;;;1.61;88.22;98377.75;5047731;28;20128;-61
2022/04/16 04:09:11;;;;;;;6.47;3.00;;;;;;;1.52;88.15;98374.28;5048671;28;20382;-61
2022/04/16 04:11:37;;;;;;;5.68;2.80;;;;;;;1.60;88.02;98379.63;5047129;28;20398;-61
2022/04/16 04:14:04;;;;;;;5.00;2.78;;;;;;;1.61;88.26;98367.94;5054204;28;20045;-61
2022/04/16 04:16:30;;;;;;;5.18;2.80;;;;;;;1.58;88.90;98368.25;5046966;28;20095;-61
2022/04/16 04:18:57;;;;;;;5.18;2.95;;;;;;;1.61;88.86;98364.41;5047939;28;20040;-60
2022/04/16 04:21:23;;;;;;;6.10;2.78;;;;;;;1.89;89.00;98367.53;5057335;28;20052;-61
2022/04/16 04:23:50;;;;;;;8.65;3.45;;;;;;;2.10;87.19;98381.34;5050063;28;20040;-61
2022/04/16 04:26:17;;;;;;;4.93;2.53;;;;;;;1.79;87.50;98390.91;5061199;28;20049;-61
2022/04/16 04:28:43;;;;;;;4.82;2.50;;;;;;;2.02;87.14;98403.53;5054293;28;20496;-61
2022/04/16 04:31:10;;;;;;;5.57;3.08;;;;;;;2.36;86.73;98394.41;5047460;28;20041;-61
2022/04/16 04:33:37;;;;;;;6.93;3.03;;;;;;;2.01;86.28;98391.19;5054415;28;20056;-61
2022/04/16 04:36:04;;;;;;;5.75;3.00;;;;;;;1.86;87.64;98393.75;5053260;28;20040;-61
2022/04/16 04:38:30;;;;;;;6.72;3.10;;;;;;;1.91;88.18;98397.56;5050928;28;20052;-61
2022/04/16 04:40:58;;;;;;;6.22;3.20;;;;;;;2.05;87.99;98400.53;5044413;28;20057;-61
2022/04/16 04:43:25;;;;;;;6.32;3.20;;;;;;;2.09;88.58;98396.53;5046021;28;20935;-61
2022/04/16 04:45:51;;;;;;;6.43;3.40;;;;;;;2.32;88.62;98407.31;5060105;28;20059;-61
2022/04/16 04:48:18;;;;;;;5.95;3.00;;;;;;;2.41;87.34;98399.25;5048337;28;20098;-61
2022/04/16 04:50:44;;;;;;;4.70;2.85;;;;;;;2.39;87.90;98395.94;5065328;28;20044;-61
2022/04/16 04:53:11;;;;;;;6.75;2.70;;;;;;;2.53;87.01;98400.53;5059530;28;20588;-61
2022/04/16 04:55:38;;;;;;;6.22;3.00;;;;;;;2.76;87.24;98398.91;5073549;28;20056;-61
2022/04/16 04:58:05;;;;;;;5.97;2.90;;;;;;;3.02;86.49;98401.25;5068623;28;20043;-62
2022/04/16 05:00:31;;;;;;;4.47;2.50;;;;;;;3.15;85.31;98400.66;5062301;28;20212;-61
2022/04/16 05:02:58;;;;;;;5.60;2.90;;;;;;;3.04;85.43;98401.91;5071635;28;20064;-61
2022/04/16 05:05:25;;;;;;;5.47;3.10;;;;;;;3.20;85.70;98400.13;5074303;28;20064;-61
2022/04/16 05:07:51;;;;;;;5.63;3.05;;;;;;;3.23;84.49;98403.28;5063776;28;20222;-61
2022/04/16 05:10:18;;;;;;;6.00;3.45;;;;;;;3.37;84.76;98408.88;5061243;28;20065;-61
2022/04/16 05:12:44;;;;;;;8.23;3.72;;;;;;;3.56;83.95;98410.22;5059353;28;20147;-61
2022/04/16 05:15:11;;;;;;;6.95;4.28;;;;;;;3.37;84.52;98411.56;5053964;28;20051;-61
2022/04/16 05:17:38;;;;;;;7.65;3.80;;;;;;;3.70;84.52;98418.47;5059028;28;20047;-61
2022/04/16 05:20:09;;;;;;;9.18;3.30;;;;;;;3.81;83.00;98418.03;5052320;28;20413;-61
2022/04/16 05:22:35;;;;;;;5.32;3.25;;;;;;;3.94;83.09;98424.63;5055025;28;20036;-61
2022/04/16 05:25:02;;;;;;;5.72;3.30;;;;;;;4.15;82.51;98422.03;5055416;28;20049;-62
2022/04/16 05:27:30;;;;;;;6.57;3.90;;;;;;;4.21;82.04;98415.13;5057902;28;20044;-63
2022/04/16 05:30:06;;;;;;;7.38;3.83;;;;;;;4.36;81.69;98420.47;5055343;28;20044;-62
2022/04/16 05:32:35;;;;;;;6.90;3.55;;;;;;;4.13;83.20;98417.88;5053443;28;20091;-63
2022/04/16 05:35:04;;;;;;;6.88;3.95;;;;;;;4.11;83.84;98419.91;5054066;28;20044;-62
2022/04/16 05:37:31;;;;;;;6.45;3.97;;;;;;;4.27;83.40;98419.72;5053863;28;20114;-62
2022/04/16 05:39:57;;;;;;;5.95;3.28;;;;;;;4.32;84.48;98421.88;5053842;28;20098;-63
2022/04/16 05:42:24;;;;;;;8.38;3.33;;;;;;;4.46;83.47;98420.16;5053602;28;20048;-63
2022/04/16 05:44:50;;;;;;;6.07;3.35;;;;;;;4.69;82.37;98420.03;5055803;28;20098;-62
2022/04/16 05:47:17;;;;;;;5.88;3.22;;;;;;;4.86;82.33;98424.38;5054474;28;20055;-63
2022/04/16 05:49:43;;;;;;;5.35;2.92;;;;;;;5.18;80.32;98432.97;5055148;28;20048;-63
2022/04/16 05:52:10;;;;;;;6.15;3.28;;;;;;;5.31;80.26;98429.59;5044846;28;20040;-63
2022/04/16 05:54:37;;;;;;;6.53;3.88;;;;;;;5.14;81.38;98427.16;5059118;28;20066;-63
2022/04/16 05:57:04;;;;;;;7.00;3.70;;;;;;;5.16;82.33;98433.16;5050615;28;20106;-62
2022/04/16 05:59:30;;;;;;;5.68;3.38;;;;;;;5.40;81.44;98430.28;5047946;28;20201;-63
2022/04/16 06:01:57;;;;;;;5.57;3.58;;;;;;;5.56;80.76;98431.88;5052495;28;20033;-62
2022/04/16 06:04:24;;;;;;;6.13;3.10;;;;;;;5.53;81.44;98433.09;5063744;28;20062;-61
2022/04/16 06:06:50;;;;;;;7.70;3.60;;;;;;;5.55;81.25;98436.44;5054226;28;20132;-62
2022/04/16 06:09:17;;;;;;;5.47;3.22;;;;;;;5.60;81.04;98444.75;5045292;28;20067;-61
2022/04/16 06:11:44;;;;;;;7.38;3.10;;;;;;;5.85;79.81;98441.66;5048705;28;20044;-62
2022/04/16 06:14:10;;;;;;;5.07;3.00;;;;;;;6.02;79.03;98452.13;5052265;28;20049;-62
2022/04/16 06:16:37;;;;;;;5.68;3.00;;;;;;;6.22;77.02;98454.13;5052074;28;20067;-62
2022/04/16 06:19:03;;;;;;;5.10;2.78;;;;;;;6.35;76.41;98450.69;5049139;28;20045;-61
2022/04/16 06:21:30;;;;;;;4.90;3.10;;;;;;;6.21;79.78;98450.63;5060938;28;20503;-62
2022/04/16 06:23:57;;;;;;;5.00;2.72;;;;;;;6.26;77.97;98452.69;5051058;28;20098;-63
2022/04/16 06:26:26;;;;;;;5.60;2.90;;;;;;;6.50;77.18;98451.38;5055689;28;20044;-60
2022/04/16 06:28:52;;;;;;;5.13;2.65;;;;;;;7.26;74.74;98454.19;5049256;28;20538;-63
2022/04/16 06:31:19;;;;;;;5.38;3.22;;;;;;;7.63;72.11;98456.50;5049033;28;20690;-59
2022/04/16 06:33:46;;;;;;;4.95;2.83;;;;;;;7.54;71.62;98461.28;5058343;28;20408;-59
2022/04/16 06:36:12;;;;;;;5.03;3.35;;;;;;;7.48;72.41;98453.19;5058757;28;20044;-59
2022/04/16 06:38:39;;;;;;;6.20;3.22;;;;;;;7.36;71.94;98461.88;5078736;28;20112;-59
2022/04/16 06:41:05;;;;;;;6.70;3.67;;;;;;;7.31;71.99;98458.97;5054682;28;20041;-59
2022/04/16 06:43:32;;;;;;;5.25;2.88;;;;;;;7.32;72.01;98451.69;5050737;28;20037;-57
2022/04/16 06:46:00;;;;;;;4.88;3.20;;;;;;;7.23;72.27;98459.16;5050189;28;20143;-59
2022/04/16 06:48:27;;;;;;;7.07;2.72;;;;;;;7.36;72.51;98458.34;5059231;28;20056;-61
2022/04/16 06:50:54;;;;;;;6.72;3.03;;;;;;;7.52;71.62;98467.91;5061712;28;20052;-57
2022/04/16 06:53:20;;;;;;;4.68;2.83;;;;;;;7.60;71.62;98465.03;5053708;28;20044;-58
2022/04/16 06:55:47;;;;;;;5.10;3.15;;;;;;;7.48;71.23;98472.06;5059460;28;20045;-59
2022/04/16 06:58:13;;;;;;;5.10;3.20;;;;;;;7.39;72.92;98474.94;5052613;28;20036;-58
2022/04/16 07:00:40;;;;;;;20.20;3.75;;;;;;;7.39;71.74;98474.94;5052764;28;20044;-56
2022/04/16 07:03:07;;;;;;;6.18;3.38;;;;;;;7.55;71.50;98472.88;5058944;28;20045;-63
2022/04/16 07:05:34;;;;;;;7.43;3.28;;;;;;;7.59;71.16;98470.63;5065888;28;20036;-64
2022/04/16 07:08:00;;;;;;;8.70;3.05;;;;;;;7.85;69.92;98477.88;5059180;28;20499;-64
2022/04/16 07:10:27;;;;;;;5.25;2.97;;;;;;;7.95;69.67;98466.69;5064804;28;20056;-64
2022/04/16 07:12:53;;;;;;;5.03;2.80;;;;;;;8.06;69.50;98470.63;5065404;28;20055;-64
2022/04/16 07:15:20;;;;;;;5.78;2.85;;;;;;;8.13;68.98;98468.75;5074840;28;20075;-65
2022/04/16 07:17:47;;;;;;;5.10;3.03;;;;;;;8.22;68.87;98479.34;5079193;28;20040;-64
2022/04/16 07:20:13;;;;;;;6.22;3.15;;;;;;;8.20;69.70;98476.84;5067220;28;20060;-64
2022/04/16 07:22:40;;;;;;;5.53;3.00;;;;;;;8.28;68.81;98489.28;5063690;28;20396;-64
2022/04/16 07:25:07;;;;;;;5.82;2.90;;;;;;;8.48;68.29;98480.34;5067513;28;20041;-65
2022/04/16 07:27:33;;;;;;;4.65;2.90;;;;;;;8.56;68.01;98478.25;5072669;28;20050;-64
2022/04/16 07:30:00;;;;;;;5.53;2.90;;;;;;;8.64;67.57;98481.78;5073244;28;20574;-64
2022/04/16 07:32:27;;;;;;;4.97;3.05;;;;;;;8.28;69.36;98484.72;5072227;28;20044;-63
2022/04/16 07:34:54;;;;;;;5.05;2.95;;;;;;;8.48;68.60;98483.03;5080995;28;20193;-64
2022/04/16 07:37:22;;;;;;;7.50;3.35;;;;;;;8.55;68.19;98484.72;5082414;28;20039;-64
2022/04/16 07:39:49;;;;;;;6.20;3.40;;;;;;;8.35;69.54;98486.56;5072289;28;20056;-64
2022/04/16 07:42:17;;;;;;;6.75;3.38;;;;;;;8.37;69.97;98489.91;5060762;28;20114;-64
2022/04/16 07:44:44;;;;;;;6.93;3.00;;;;;;;8.77;68.46;98495.25;5074125;28;20048;-64
2022/04/16 07:47:11;;;;;;;6.72;3.45;;;;;;;8.94;67.92;98484.81;5076577;28;20048;-64
2022/04/16 07:49:37;;;;;;;7.20;3.85;;;;;;;8.71;68.80;98491.50;5078181;28;20471;-64
2022/04/16 07:52:04;;;;;;;5.97;3.58;;;;;;;8.46;70.35;98492.19;5077740;28;20032;-64
2022/04/16 07:54:31;;;;;;;5.22;3.38;;;;;;;8.81;69.68;98495.66;5068466;28;20059;-64
2022/04/16 07:56:57;;;;;;;8.75;3.92;;;;;;;8.98;68.72;98490.59;5067513;28;20052;-64
2022/04/16 07:59:24;;;;;;;7.65;4.28;;;;;;;9.18;68.66;98503.22;5069206;28;20200;-64
2022/04/16 08:01:50;;;;;;;7.45;3.80;;;;;;;9.16;68.96;98498.00;5055614;28;20049;-63
2022/04/16 08:04:17;;;;;;;7.13;3.47;;;;;;;9.33;68.71;98497.53;5054581;28;20449;-64
2022/04/16 08:06:44;;;;;;;6.97;4.22;;;;;;;9.62;67.26;98496.09;5063596;28;20040;-64
2022/04/16 08:09:10;;;;;;;7.60;4.03;;;;;;;9.69;67.95;98497.94;5064751;28;20060;-64
2022/04/16 08:11:37;;;;;;;6.82;4.20;;;;;;;9.66;67.53;98496.47;5069479;28;20090;-64
2022/04/16 08:14:05;;;;;;;6.63;4.10;;;;;;;9.83;67.04;98496.78;5052227;28;20052;-66
2022/04/16 08:16:32;;;;;;;6.47;4.20;;;;;;;9.40;68.68;98511.81;5063739;28;20032;-64
2022/04/16 08:18:59;;;;;;;7.57;3.78;;;;;;;9.92;67.25;98510.06;5058088;28;20586;-64
2022/04/16 08:21:26;;;;;;;6.43;4.10;;;;;;;9.87;67.27;98516.09;5056904;28;20040;-64
2022/04/16 08:24:03;;;;;;;10.35;5.75;;;;;;;9.70;67.48;98513.94;5048270;28;20410;-64
2022/04/16 08:26:32;;;;;;;6.78;4.45;;;;;;;9.88;66.41;98520.50;5059678;28;20055;-64
2022/04/16 08:28:59;;;;;;;14.18;4.60;;;;;;;9.91;66.79;98522.75;5084423;28;20060;-64
2022/04/16 08:31:26;;;;;;;7.43;4.25;;;;;;;10.00;66.58;98521.41;5071014;28;20045;-64
2022/04/16 08:33:53;;;;;;;14.57;5.68;;;;;;;9.83;66.92;98517.59;5064936;28;20052;-64
2022/04/16 08:36:19;;;;;;;8.85;4.75;;;;;;;9.63;67.91;98521.28;5065549;28;20053;-63
2022/04/16 08:38:46;;;;;;;6.43;4.57;;;;;;;9.81;67.33;98517.84;5079192;28;20043;-64
2022/04/16 08:41:13;;;;;;;13.10;5.47;;;;;;;9.40;67.72;98521.81;5064991;28;20465;-63
2022/04/16 08:43:43;;;;;;;7.95;4.60;;;;;;;9.76;67.38;98517.63;5050245;28;20060;-63
2022/04/16 08:46:10;;;;;;;8.45;5.05;;;;;;;9.63;68.36;98526.69;5069341;28;20086;-64
2022/04/16 08:48:38;;;;;;;11.18;5.32;;;;;;;9.60;68.67;98530.66;5079204;28;20369;-64
2022/04/16 08:51:06;;;;;;;8.52;4.90;;;;;;;9.70;68.32;98526.63;5078998;28;20044;-64
2022/04/16 08:53:33;;;;;;;7.53;4.90;;;;;;;9.44;68.49;98529.25;5033789;28;1078897;-64
2022/04/16 08:55:59;;;;;;;8.82;5.20;;;;;;;9.03;70.84;98535.91;5063211;28;20040;-64
2022/04/16 08:58:29;;;;;;;6.00;4.15;;;;;;;9.46;69.43;98532.59;5082677;28;20040;-64
2022/04/16 09:00:56;;;;;;;7.72;4.70;;;;;;;9.42;68.91;98531.38;5065265;28;20044;-64
2022/04/16 09:03:33;;;;;;;9.07;5.38;;;;;;;9.15;69.91;98534.19;5067599;28;20036;-64
2022/04/16 09:06:00;;;;;;;8.95;5.50;;;;;;;9.09;70.66;98530.47;5062515;28;20761;-65
2022/04/16 09:08:29;;;;;;;9.30;4.85;;;;;;;9.19;70.24;98535.44;5062763;28;20500;-65
2022/04/16 09:11:11;;;;;;;8.23;5.00;;;;;;;9.40;69.43;98530.72;5062023;28;20052;-65
2022/04/16 09:13:55;;;;;;;7.68;4.68;;;;;;;9.19;69.66;98529.19;5071802;28;20040;-64
2022/04/16 09:16:22;;;;;;;8.38;4.65;;;;;;;9.43;67.99;98524.09;5061175;28;20429;-64
2022/04/16 09:18:55;;;;;;;8.02;5.05;;;;;;;9.62;67.97;98531.25;5077300;28;20138;-65
2022/04/16 09:21:26;;;;;;;7.85;4.50;;;;;;;9.96;66.90;98528.34;5060524;28;20040;-65
2022/04/16 09:24:01;;;;;;;7.05;4.32;;;;;;;10.27;65.46;98531.22;5077097;28;20059;-64
2022/04/16 09:26:35;;;;;;;9.30;5.55;;;;;;;10.35;65.86;98524.69;5048983;28;20036;-64
2022/04/16 09:29:13;;;;;;;7.75;4.90;;;;;;;10.06;66.78;98522.41;5072378;28;20419;-64
2022/04/16 09:31:43;;;;;;;7.85;5.10;;;;;;;9.49;68.27;98525.91;5064337;28;20050;-64
2022/04/16 09:34:24;;;;;;;9.50;5.83;;;;;;;9.20;69.19;98528.13;5062470;28;20048;-65
2022/04/16 09:36:51;;;;;;;8.95;5.03;;;;;;;9.05;69.84;98523.84;5059693;28;20037;-64
2022/04/16 09:39:22;;;;;;;10.05;5.53;;;;;;;9.06;70.09;98527.34;5060349;28;20044;-65
2022/04/16 09:41:53;;;;;;;9.82;5.47;;;;;;;9.09;69.62;98518.81;5066200;28;20048;-65
2022/04/16 09:44:25;;;;;;;9.20;5.07;;;;;;;9.19;69.10;98530.03;5071562;28;20063;-63
2022/04/16 09:46:53;;;;;;;7.82;5.57;;;;;;;9.14;68.92;98531.69;5064523;28;20419;-65
2022/04/16 09:49:21;;;;;;;8.35;5.30;;;;;;;9.07;68.89;98537.13;5075310;28;20056;-65
2022/04/16 09:51:48;;;;;;;7.72;5.00;;;;;;;8.94;68.85;98540.69;5070344;28;20041;-65
2022/04/16 09:54:17;;;;;;;7.43;4.63;;;;;;;9.12;68.28;98531.91;5073876;28;20048;-64
2022/04/16 09:56:46;;;;;;;9.10;5.03;;;;;;;9.21;68.04;98532.47;5075077;28;20049;-65
2022/04/16 09:59:17;;;;;;;9.48;5.47;;;;;;;8.99;68.10;98540.88;5062493;28;20052;-65
2022/04/16 10:01:48;;;;;;;8.90;5.22;;;;;;;9.22;67.27;98542.28;5058118;28;20448;-65
2022/04/16 10:04:19;;;;;;;8.73;5.10;;;;;;;9.33;66.24;98547.00;5066959;28;20052;-64
2022/04/16 10:06:47;;;;;;;9.60;5.25;;;;;;;9.20;65.18;98553.28;5054681;28;20443;-66
2022/04/16 10:09:17;;;;;;;10.73;5.03;;;;;;;9.51;63.46;98545.44;5062894;28;20048;-65
2022/04/16 10:14:51;;;;;;;9.15;4.65;;;;;;;9.85;61.45;98551.50;5074717;28;20052;-66
2022/04/16 10:17:30;;;;;;;7.10;4.15;;;;;;;10.00;61.68;98564.72;5059156;28;20048;-63
2022/04/16 10:20:07;;;;;;;9.40;4.70;;;;;;;10.12;61.03;98555.91;5056892;28;20370;-65
2022/04/16 10:22:34;;;;;;;7.18;4.68;;;;;;;10.30;60.22;98562.41;5050277;28;20041;-63
2022/04/16 10:25:01;;;;;;;8.45;5.43;;;;;;;10.44;60.13;98566.72;5070598;28;20059;-63
2022/04/16 10:27:40;;;;;;;7.72;4.97;;;;;;;10.97;59.21;98564.53;5075883;28;20051;-64
2022/04/16 10:30:12;;;;;;;8.10;4.85;;;;;;;11.10;58.19;98565.44;5071711;28;20044;-63
2022/04/16 10:32:40;;;;;;;9.30;5.53;;;;;;;11.14;58.38;98566.66;5057394;28;20054;-63
2022/04/16 10:35:16;;;;;;;8.18;4.85;;;;;;;11.17;57.71;98571.63;5071249;28;20545;-64
2022/04/16 10:37:44;;;;;;;8.73;4.70;;;;;;;11.65;56.36;98563.72;5067019;28;20452;-63
2022/04/16 10:40:16;;;;;;;8.70;5.22;;;;;;;11.52;56.46;98567.44;5087712;28;20051;-63
2022/04/16 10:43:01;;;;;;;7.95;4.65;;;;;;;11.27;56.13;98561.06;5066959;28;20040;-63
2022/04/16 10:45:34;;;;;;;7.57;4.82;;;;;;;11.37;56.23;98565.13;5082275;28;20036;-64
2022/04/16 10:48:02;;;;;;;8.02;4.60;;;;;;;11.29;56.31;98567.09;5063559;28;20517;-65
2022/04/16 10:50:31;;;;;;;7.97;4.15;;;;;;;11.31;55.98;98566.84;5074682;28;20055;-65
2022/04/16 10:53:01;;;;;;;7.50;4.55;;;;;;;11.26;55.00;98566.72;5066828;28;20059;-65
2022/04/16 10:55:32;;;;;;;9.43;5.18;;;;;;;11.15;56.11;98566.44;5056568;28;20090;-65
2022/04/16 10:58:06;;;;;;;9.55;5.10;;;;;;;11.48;55.27;98558.94;5076398;28;20411;-65
2022/04/16 11:00:42;;;;;;;7.40;4.85;;;;;;;11.02;56.55;98566.59;5069442;28;20052;-65
2022/04/16 11:03:30;;;;;;;8.35;4.55;;;;;;;11.41;54.44;98556.31;5062326;28;20335;-65
2022/04/16 11:06:04;;;;;;;7.47;4.30;;;;;;;11.49;54.07;98555.16;5061612;28;20443;-65
2022/04/16 11:08:34;;;;;;;6.20;4.18;;;;;;;11.13;55.25;98557.69;5049860;28;20052;-65
2022/04/16 11:11:05;;;;;;;6.88;4.38;;;;;;;11.28;54.37;98553.78;5071773;28;20064;-65
2022/04/16 11:13:35;;;;;;;6.07;3.60;;;;;;;11.14;54.61;98544.97;5064914;28;20052;-65
2022/04/16 11:16:02;;;;;;;6.10;3.58;;;;;;;11.65;53.75;98548.25;5048240;28;20040;-69
2022/04/16 11:18:45;;;;;;;6.60;4.03;;;;;;;11.95;53.11;98549.31;5062905;28;20492;-69
2022/04/16 11:21:20;;;;;;;6.15;3.20;;;;;;;11.74;52.67;98554.22;5075749;28;20051;-69
2022/04/16 11:23:52;;;;;;;6.88;3.55;;;;;;;11.39;53.08;98549.47;5074457;28;20036;-68
2022/04/16 11:34:50;;;;;;;5.30;2.80;;;;;;;12.30;49.78;98545.03;5060725;28;20056;-68
2022/04/16 11:37:29;;;;;;;6.50;3.40;;;;;;;12.00;50.73;98554.03;5050665;28;20431;-68
2022/04/16 11:40:05;;;;;;;5.50;3.08;;;;;;;12.37;49.80;98551.19;5060530;28;20612;-69
2022/04/16 11:42:32;;;;;;;5.55;3.10;;;;;;;11.80;50.96;98549.75;5059471;28;20060;-68
2022/04/16 11:44:59;;;;;;;5.70;3.10;;;;;;;12.06;50.23;98553.16;5062849;28;20056;-67
2022/04/16 11:47:27;;;;;;;6.25;3.55;;;;;;;12.20;49.54;98553.78;5061764;28;20048;-68
2022/04/16 11:50:06;;;;;;;7.50;3.30;;;;;;;12.16;48.99;98550.69;5074368;28;20047;-68
2022/04/16 11:52:35;;;;;;;7.28;3.50;;;;;;;11.90;49.88;98547.28;5070288;28;20032;-68
2022/04/16 11:55:07;;;;;;;5.97;3.60;;;;;;;11.90;49.83;98544.59;5071647;28;20105;-68
2022/04/16 11:57:34;;;;;;;5.95;3.22;;;;;;;12.24;49.65;98541.41;5075813;28;20040;-67
2022/04/16 12:00:06;;;;;;;5.65;3.22;;;;;;;12.73;47.87;98543.91;5083094;28;20052;-69
2022/04/16 12:02:35;;;;;;;5.30;2.67;;;;;;;12.75;46.67;98543.63;5069828;28;20071;-68
2022/04/16 12:05:12;;;;;;;5.13;2.55;;;;;;;12.34;47.53;98547.06;5064751;28;20113;-68
2022/04/16 12:07:48;;;;;;;5.55;2.95;;;;;;;12.13;48.25;98542.19;5063412;28;20037;-68
2022/04/16 12:10:17;;;;;;;5.95;3.08;;;;;;;11.95;48.71;98541.19;5078673;28;20052;-68